createdAt,value
2017-06-01T00:01:12.613Z,1021.130
2017-06-01T06:25:04.851Z,1022.292
2017-06-01T06:28:20.192Z,1022.386
2017-06-01T06:31:04.770Z,1022.363
2017-06-01T06:33:57.895Z,1022.326
2017-06-01T06:37:25.385Z,1022.322
2017-06-01T06:45:04.534Z,1022.221
2017-06-01T06:49:17.253Z,1022.180
2017-06-01T06:52:34.400Z,1022.185
2017-06-01T06:58:38.650Z,1022.204
2017-06-01T07:05:02.184Z,1022.142
2017-06-01T07:07:55.928Z,1022.120
2017-06-01T07:10:49.794Z,1022.140
2017-06-01T07:13:43.773Z,1022.152
2017-06-01T07:16:49.085Z,1022.157
2017-06-01T07:19:37.979Z,1022.156
2017-06-01T07:22:32.241Z,1022.076
2017-06-01T07:25:26.471Z,1022.122
2017-06-01T07:31:50.970Z,1022.078
2017-06-01T07:34:45.158Z,1022.032
2017-06-01T07:37:50.570Z,1022.061
2017-06-01T07:40:51.080Z,1022.166
2017-06-01T07:45:10.427Z,1022.084
2017-06-01T07:47:54.360Z,1022.141
2017-06-01T07:50:48.145Z,1022.137
2017-06-01T07:56:36.618Z,1022.149
2017-06-01T08:03:01.748Z,1022.188
2017-06-01T08:05:55.907Z,1022.161
2017-06-01T08:11:28.658Z,1022.172
2017-06-01T08:14:12.188Z,1022.142
2017-06-01T08:17:06.394Z,1022.158
2017-06-01T08:20:00.904Z,1022.174
2017-06-01T08:22:55.635Z,1022.206
2017-06-01T08:25:50.405Z,1022.157
2017-06-01T08:28:45.409Z,1022.114
2017-06-01T08:31:40.526Z,1022.154
2017-06-01T08:34:35.479Z,1022.159
2017-06-01T08:37:30.690Z,1022.139
2017-06-01T08:40:25.880Z,1022.136
2017-06-01T08:43:21.064Z,1022.194
2017-06-01T08:46:16.304Z,1022.152
2017-06-01T08:49:11.479Z,1022.173
2017-06-01T08:52:06.921Z,1022.158
2017-06-01T08:55:02.416Z,1022.149
2017-06-01T08:57:58.120Z,1022.226
2017-06-01T09:00:53.886Z,1022.256
2017-06-01T09:03:49.617Z,1022.138
2017-06-01T09:06:45.201Z,1022.161
2017-06-01T09:09:40.837Z,1022.165
2017-06-01T09:12:36.512Z,1022.178
2017-06-01T09:15:32.383Z,1022.142
2017-06-01T09:18:28.152Z,1022.171
2017-06-01T09:21:23.684Z,1022.166
2017-06-01T09:24:19.447Z,1022.148
2017-06-01T09:27:15.193Z,1022.221
2017-06-01T09:30:10.895Z,1022.227
2017-06-01T09:33:06.623Z,1022.179
2017-06-01T09:36:02.428Z,1022.207
2017-06-01T09:38:58.319Z,1022.127
2017-06-01T09:41:54.218Z,1022.185
2017-06-01T09:44:50.040Z,1022.202
2017-06-01T09:47:46.005Z,1022.200
2017-06-01T09:50:42.008Z,1022.165
2017-06-01T09:53:38.004Z,1022.165
2017-06-01T09:56:33.682Z,1022.089
2017-06-01T09:59:29.121Z,1022.066
2017-06-01T10:02:24.703Z,1022.088
2017-06-01T10:05:20.454Z,1022.089
2017-06-01T10:08:16.127Z,1022.031
2017-06-01T10:11:11.856Z,1021.976
2017-06-01T10:14:07.481Z,1022.079
2017-06-01T10:17:03.189Z,1022.054
2017-06-01T10:19:58.848Z,1022.025
2017-06-01T10:22:54.481Z,1022.008
2017-06-01T10:25:49.909Z,1021.999
2017-06-01T10:28:45.171Z,1021.953
2017-06-01T10:31:40.164Z,1021.884
2017-06-01T10:34:35.111Z,1021.960
2017-06-01T10:37:29.991Z,1021.943
2017-06-01T10:40:25.026Z,1021.904
2017-06-01T10:43:20.046Z,1022.000
2017-06-01T10:46:14.960Z,1021.911
2017-06-01T10:49:10.106Z,1021.944
2017-06-01T10:57:54.952Z,1021.969
2017-06-01T11:00:49.810Z,1021.863
2017-06-01T11:03:44.778Z,1021.901
2017-06-01T11:06:39.724Z,1021.950
2017-06-01T11:09:34.545Z,1022.033
2017-06-01T11:12:29.064Z,1021.967
2017-06-01T11:15:23.895Z,1022.041
2017-06-01T11:18:18.696Z,1022.006
2017-06-01T11:21:13.465Z,1021.879
2017-06-01T11:27:02.928Z,1021.868
2017-06-01T11:29:57.392Z,1021.839
2017-06-01T11:32:51.931Z,1021.846
2017-06-01T11:35:46.569Z,1021.789
2017-06-01T11:38:41.258Z,1021.767
2017-06-01T11:41:35.563Z,1021.739
2017-06-01T11:44:30.062Z,1021.740
2017-06-01T11:47:24.358Z,1021.691
2017-06-01T11:50:18.770Z,1021.648
2017-06-01T11:53:13.171Z,1021.712
2017-06-01T11:56:07.604Z,1021.748
2017-06-01T11:59:01.976Z,1021.591
2017-06-01T12:01:56.420Z,1021.675
2017-06-01T12:04:50.783Z,1021.700
2017-06-01T12:07:45.159Z,1021.660
2017-06-01T12:10:39.430Z,1021.625
2017-06-01T12:13:33.669Z,1021.604
2017-06-01T12:16:27.945Z,1021.619
2017-06-01T12:19:22.379Z,1021.604
2017-06-01T12:22:16.620Z,1021.618
2017-06-01T12:25:10.957Z,1021.570
2017-06-01T12:28:05.025Z,1021.549
2017-06-01T12:30:59.101Z,1021.512
2017-06-01T12:33:53.060Z,1021.500
2017-06-01T12:36:47.211Z,1021.437
2017-06-01T12:39:41.149Z,1021.458
2017-06-01T12:42:35.016Z,1021.353
2017-06-01T12:45:28.931Z,1021.223
2017-06-01T12:48:23.004Z,1021.273
2017-06-01T12:51:17.070Z,1021.272
2017-06-01T12:54:10.927Z,1021.340
2017-06-01T12:57:05.159Z,1021.301
2017-06-01T12:59:59.156Z,1021.302
2017-06-01T13:02:53.049Z,1021.312
2017-06-01T13:05:47.002Z,1021.258
2017-06-01T13:08:41.162Z,1021.182
2017-06-01T13:14:29.163Z,1021.253
2017-06-01T13:20:17.254Z,1021.212
2017-06-01T13:23:11.604Z,1021.180
2017-06-01T13:26:05.624Z,1021.173
2017-06-01T13:28:59.752Z,1021.148
2017-06-01T13:34:47.521Z,1021.114
2017-06-01T13:37:41.643Z,1021.207
2017-06-01T13:40:36.095Z,1021.173
2017-06-01T13:43:29.845Z,1021.156
2017-06-01T13:46:23.841Z,1021.156
2017-06-01T13:49:18.230Z,1021.181
2017-06-01T13:52:12.364Z,1021.145
2017-06-01T13:55:06.393Z,1021.114
2017-06-01T13:58:00.263Z,1021.085
2017-06-01T14:00:54.249Z,1021.096
2017-06-01T14:03:48.187Z,1021.066
2017-06-01T14:06:42.080Z,1021.107
2017-06-01T14:09:36.083Z,1021.060
2017-06-01T14:12:30.047Z,1021.034
2017-06-01T14:15:24.076Z,1021.120
2017-06-01T14:21:12.015Z,1021.040
2017-06-01T14:24:05.994Z,1021.114
2017-06-01T14:26:59.839Z,1021.027
2017-06-01T14:29:53.624Z,1021.003
2017-06-01T14:32:47.489Z,1021.016
2017-06-01T14:35:41.129Z,1021.014
2017-06-01T14:38:34.953Z,1021.031
2017-06-01T14:41:28.754Z,1020.978
2017-06-01T14:44:22.594Z,1020.944
2017-06-01T14:47:16.297Z,1020.906
2017-06-01T14:55:58.196Z,1020.821
2017-06-01T14:58:52.101Z,1020.735
2017-06-01T15:01:46.032Z,1020.577
2017-06-01T15:04:40.027Z,1020.661
2017-06-01T15:07:33.826Z,1020.593
2017-06-01T15:10:27.673Z,1020.568
2017-06-01T15:13:21.576Z,1020.531
2017-06-01T15:16:15.341Z,1020.499
2017-06-01T15:19:09.617Z,1020.530
2017-06-01T15:22:03.820Z,1020.501
2017-06-01T15:24:57.992Z,1020.499
2017-06-01T15:27:52.287Z,1020.496
2017-06-01T15:30:46.428Z,1020.495
2017-06-01T15:33:40.713Z,1020.494
2017-06-01T15:36:34.937Z,1020.493
2017-06-01T15:39:29.160Z,1020.457
2017-06-01T15:42:23.396Z,1020.437
2017-06-01T15:45:17.567Z,1020.418
2017-06-01T15:48:11.870Z,1020.393
2017-06-01T15:51:06.082Z,1020.443
2017-06-01T15:54:00.359Z,1020.417
2017-06-01T15:56:54.666Z,1020.362
2017-06-01T15:59:48.901Z,1020.348
2017-06-01T16:02:43.182Z,1020.315
2017-06-01T16:05:37.728Z,1020.298
2017-06-01T16:08:31.903Z,1020.187
2017-06-01T16:11:26.140Z,1020.195
2017-06-01T16:14:20.508Z,1020.197
2017-06-01T16:17:14.698Z,1020.215
2017-06-01T16:20:09.013Z,1020.179
2017-06-01T16:23:03.245Z,1020.157
2017-06-01T16:25:57.617Z,1020.123
2017-06-01T16:28:51.930Z,1020.169
2017-06-01T16:31:46.263Z,1020.174
2017-06-01T16:34:40.511Z,1020.224
2017-06-01T16:37:34.797Z,1020.208
2017-06-01T16:40:29.143Z,1020.162
2017-06-01T16:43:23.533Z,1020.081
2017-06-01T16:46:17.744Z,1020.066
2017-06-01T16:49:11.976Z,1020.072
2017-06-01T16:52:06.262Z,1020.021
2017-06-01T16:55:00.477Z,1020.001
2017-06-01T16:57:54.845Z,1020.021
2017-06-01T17:00:49.238Z,1019.998
2017-06-01T17:03:43.339Z,1020.018
2017-06-01T17:06:37.662Z,1019.995
2017-06-01T17:09:31.992Z,1020.036
2017-06-01T17:12:26.391Z,1020.012
2017-06-01T17:15:20.714Z,1020.000
2017-06-01T17:18:15.001Z,1019.953
2017-06-01T17:21:09.316Z,1019.979
2017-06-01T17:24:03.616Z,1019.942
2017-06-01T17:26:57.977Z,1019.963
2017-06-01T17:29:52.379Z,1019.908
2017-06-01T17:32:46.884Z,1019.909
2017-06-01T17:35:41.224Z,1019.906
2017-06-01T17:38:35.572Z,1019.885
2017-06-01T17:41:29.921Z,1019.885
2017-06-01T17:44:24.340Z,1019.910
2017-06-01T17:47:18.755Z,1019.868
2017-06-01T17:50:13.016Z,1019.860
2017-06-01T17:53:07.279Z,1019.862
2017-06-01T17:56:01.648Z,1019.863
2017-06-01T17:58:55.981Z,1019.855
2017-06-01T18:04:44.750Z,1019.902
2017-06-01T18:07:39.056Z,1019.891
2017-06-01T18:10:33.328Z,1019.884
2017-06-01T18:13:27.570Z,1019.886
2017-06-01T18:16:21.936Z,1019.849
2017-06-01T18:19:16.157Z,1019.834
2017-06-01T18:22:10.338Z,1019.791
2017-06-01T18:25:04.590Z,1019.794
2017-06-01T18:27:58.927Z,1019.803
2017-06-01T18:30:53.336Z,1019.829
2017-06-01T18:33:47.696Z,1019.826
2017-06-01T18:36:42.180Z,1019.862
2017-06-01T18:39:36.410Z,1019.923
2017-06-01T18:42:30.715Z,1019.942
2017-06-01T18:45:24.979Z,1019.956
2017-06-01T18:48:19.206Z,1019.964
2017-06-01T18:51:13.426Z,1019.984
2017-06-01T18:54:07.697Z,1019.965
2017-06-01T18:57:01.984Z,1019.957
2017-06-01T18:59:56.313Z,1019.969
2017-06-01T19:02:50.531Z,1019.990
2017-06-01T19:05:44.914Z,1019.996
2017-06-01T19:08:39.214Z,1020.006
2017-06-01T19:11:33.653Z,1020.027
2017-06-01T19:14:28.058Z,1020.009
2017-06-01T19:17:22.561Z,1020.017
2017-06-01T19:20:17.024Z,1020.058
2017-06-01T19:23:11.573Z,1020.083
2017-06-01T19:26:06.250Z,1020.113
2017-06-01T19:29:00.918Z,1020.126
2017-06-01T19:31:55.461Z,1020.123
2017-06-01T19:34:50.021Z,1020.119
2017-06-01T19:37:44.506Z,1020.119
2017-06-01T19:40:39.080Z,1020.168
2017-06-01T19:43:33.535Z,1020.148
2017-06-01T19:46:27.995Z,1020.171
2017-06-01T19:49:22.536Z,1020.214
2017-06-01T19:52:17.003Z,1020.208
2017-06-01T19:55:11.477Z,1020.220
2017-06-01T20:01:00.447Z,1020.251
2017-06-01T20:03:54.983Z,1020.263
2017-06-01T20:06:49.424Z,1020.271
2017-06-01T20:09:43.931Z,1020.303
2017-06-01T20:15:32.775Z,1020.269
2017-06-01T20:18:27.113Z,1020.249
2017-06-01T20:21:21.409Z,1020.244
2017-06-01T20:24:15.783Z,1020.278
2017-06-01T20:27:10.207Z,1020.272
2017-06-01T20:30:04.507Z,1020.276
2017-06-01T20:32:58.824Z,1020.351
2017-06-01T20:35:53.094Z,1020.377
2017-06-01T20:41:41.676Z,1020.418
2017-06-01T20:44:35.975Z,1020.407
2017-06-01T20:47:30.306Z,1020.427
2017-06-01T20:53:18.866Z,1020.463
2017-06-01T20:56:13.139Z,1020.510
2017-06-01T20:59:07.414Z,1020.536
2017-06-01T21:04:56.014Z,1020.546
2017-06-01T21:07:50.420Z,1020.549
2017-06-01T21:10:45.059Z,1020.542
2017-06-01T21:13:39.838Z,1020.531
2017-06-01T21:16:34.533Z,1020.510
2017-06-01T21:19:29.207Z,1020.466
2017-06-01T21:22:23.799Z,1020.470
2017-06-01T21:28:12.898Z,1020.403
2017-06-01T21:31:07.439Z,1020.347
2017-06-01T21:34:01.960Z,1020.355
2017-06-01T21:36:56.505Z,1020.350
2017-06-01T21:39:51.060Z,1020.350
2017-06-01T21:42:45.648Z,1020.344
2017-06-01T21:45:40.203Z,1020.324
2017-06-01T21:48:34.847Z,1020.307
2017-06-01T21:51:29.489Z,1020.300
2017-06-01T21:54:24.041Z,1020.322
2017-06-01T21:57:18.631Z,1020.323
2017-06-01T22:00:13.222Z,1020.309
2017-06-01T22:03:07.703Z,1020.282
2017-06-01T22:06:02.369Z,1020.265
2017-06-01T22:08:56.811Z,1020.239
2017-06-01T22:11:51.469Z,1020.252
2017-06-01T22:24:08.077Z,1020.307
2017-06-01T22:26:51.371Z,1020.295
2017-06-01T22:29:45.029Z,1020.309
2017-06-01T22:32:39.451Z,1020.287
2017-06-01T22:35:34.027Z,1020.269
2017-06-01T22:38:28.619Z,1020.264
2017-06-01T22:41:23.193Z,1020.236
2017-06-01T22:44:17.757Z,1020.237
2017-06-01T22:47:12.230Z,1020.259
2017-06-01T22:50:06.815Z,1020.269
2017-06-01T22:53:01.342Z,1020.272
2017-06-01T22:56:52.440Z,1020.248
2017-06-01T23:02:47.354Z,1020.295
2017-06-01T23:05:53.022Z,1020.299
2017-06-01T23:08:42.490Z,1020.295
2017-06-01T23:11:36.894Z,1020.300
2017-06-01T23:14:31.435Z,1020.275
2017-06-01T23:26:55.759Z,1020.230
2017-06-01T23:29:49.405Z,1020.213
2017-06-01T23:32:43.594Z,1020.254
2017-06-01T23:35:49.330Z,1020.230
2017-06-01T23:38:38.750Z,1020.231
2017-06-01T23:41:33.099Z,1020.237
2017-06-01T23:44:27.432Z,1020.266
2017-06-01T23:47:21.851Z,1020.289
2017-06-01T23:50:38.926Z,1020.282
2017-06-01T23:53:26.393Z,1020.318
